Friday, January 18, 2019, 11:42 PM EST
Back to Local

KFZY, Fulton Oswego County Airport

Location: Fulton, NY, United States Lat: 43.35
Local Time: 11:42 PM EST ( 4:42 GMT) Lon: -76.383
Time Zone: US/Eastern Elev: 475 ft

Show me the last for .
Show Decoded

2019-01-18 22:54 METAR KFZY 190354Z AUTO 32010KT 10SM OVC036 M02/M09 A3018 RMK AO2 SNE20 SLP228
                 P0000 T10171089 =
2019-01-18 21:54 METAR KFZY 190254Z AUTO 30010KT 6SM -SN OVC031 M02/M07 A3017 RMK AO2 SNB19
                 SLP224 P0000 60000 T10171072 51021 =
2019-01-18 20:54 METAR KFZY 190154Z AUTO 31008KT 10SM BKN037 OVC045 M01/M08 A3016 RMK AO2
                 SNB30E42 SLP220 P0000 T10111083 =
2019-01-18 19:54 METAR KFZY 190054Z AUTO 30007KT 9SM OVC031 M01/M04 A3015 RMK AO2 SNE46 SLP215
                 P0000 T10111044 =
2019-01-18 19:39 METAR KFZY 190039Z AUTO 27006KT 5SM -SN FEW009 FEW016 OVC030 M01/M04 A3014 RMK
                 AO2 P0000 T10111039 =
2019-01-18 19:29 METAR KFZY 190029Z AUTO 28006KT 3SM -SN SCT009 BKN015 OVC030 M01/M04 A3014 RMK
                 AO2 P0000 T10111039 =
2019-01-18 19:23 METAR KFZY 190023Z AUTO 28007KT 2 1/2SM -SN FEW007 BKN013 OVC030 M01/M04 A3013
                 RMK AO2 P0000 T10111039 =
2019-01-18 19:16 METAR KFZY 190016Z AUTO 27008KT 1 1/4SM -SN FEW007 SCT012 OVC017 M01/M04 A3013
                 RMK AO2 P0000 T10111039 =
2019-01-18 19:12 METAR KFZY 190012Z AUTO 28008KT 3/4SM -SN FEW009 BKN015 OVC040 M01/M04 A3013 RMK
                 AO2 P0000 T10111044 =
2019-01-18 19:06 METAR KFZY 190006Z AUTO 26009KT 1SM -SN BKN017 BKN022 OVC040 M01/M04 A3012 RMK
                 AO2 P0000 T10111044 =
2019-01-18 19:02 METAR KFZY 190002Z AUTO 26008KT 2SM -SN BKN019 OVC040 M01/M05 A3012 RMK AO2
                 P0000 T10061050 =
2019-01-18 18:54 METAR KFZY 182354Z AUTO 25009KT 5SM -SN SCT023 OVC040 M01/M05 A3011 RMK AO2
                 SNE30B46 SLP203 P0000 60001 T10061050 10000 21006 51021 =
2019-01-18 18:35 METAR KFZY 182335Z AUTO 25008KT 9SM FEW023 BKN042 OVC050 M01/M05 A3010 RMK AO2
                 SNE30 P0000 T10061050 =
2019-01-18 18:02 METAR KFZY 182302Z AUTO 26010G17KT 7SM -SN BKN024 BKN034 OVC040 M01/M06 A3010
                 RMK AO2 P0000 T10061056 =
2019-01-18 17:54 METAR KFZY 182254Z AUTO 25010KT 8SM -SN SCT026 BKN034 OVC042 M01/M06 A3009 RMK
                 AO2 SNB04 SLP197 P0000 T10061056 =
2019-01-18 16:54 METAR KFZY 182154Z AUTO 25008KT 10SM BKN038 OVC048 00/M06 A3007 RMK AO2 SNB09E24
                 SLP189 P0000 T00001056 =
2019-01-18 16:18 METAR KFZY 182118Z AUTO 25007KT 6SM -SN SCT024 BKN030 OVC040 00/M04 A3006 RMK
                 AO2 SNB09 P0000 T00001044 =
2019-01-18 16:10 METAR KFZY 182110Z AUTO 24007KT 7SM -SN OVC029 00/M04 A3006 RMK AO2 SNB09 P0000
                 T00001044 =
2019-01-18 15:54 METAR KFZY 182054Z AUTO 22006KT 8SM OVC031 M01/M04 A3005 RMK AO2 SNE04 SLP182
                 P0001 60001 T10061039 51022 =
2019-01-18 15:05 METAR KFZY 182005Z AUTO 29006KT 6SM HZ FEW006 BKN030 OVC036 M01/M03 A3004 RMK
                 AO2 SNE04 P0001 T10061033 =
2019-01-18 15:00 METAR KFZY 182000Z AUTO 28008KT 2 1/2SM -SN SCT006 BKN012 OVC034 M01/M03 A3004
                 RMK AO2 P0001 T10061033 =
2019-01-18 14:56 METAR KFZY 181956Z AUTO 30009KT 1SM -SN BR SCT006 BKN010 OVC034 M01/M03 A3004
                 RMK AO2 P0001 T10061028 =
2019-01-18 14:54 METAR KFZY 181954Z AUTO 30006KT 3/4SM -SN BR BKN006 BKN011 OVC016 M01/M03 A3004
                 RMK AO2 SLP177 P0000 T10061028 =
2019-01-18 14:44 METAR KFZY 181944Z AUTO 29009KT 3/4SM -SN BKN007 OVC011 M01/M03 A3003 RMK AO2
                 P0000 T10061033 =
2019-01-18 14:22 METAR KFZY 181922Z AUTO 27005KT 3/4SM -SN FEW008 BKN012 OVC018 00/M03 A3002 RMK
                 AO2 P0000 T00001033 =
2019-01-18 14:03 METAR KFZY 181903Z AUTO 28007KT 1 1/4SM -SN BKN014 OVC024 M01/M03 A3001 RMK AO2
                 P0000 T10061033 =
2019-01-18 13:54 METAR KFZY 181854Z AUTO 29005KT 2 1/2SM -SN SCT014 OVC024 M01/M03 A3001 RMK AO2
                 SLP168 P0000 T10061033 =
2019-01-18 13:47 METAR KFZY 181847Z AUTO 30007KT 3SM -SN SCT014 OVC024 M01/M04 A3001 RMK AO2
                 P0000 T10061039 =
2019-01-18 13:31 METAR KFZY 181831Z AUTO 30009KT 2 1/2SM -SN SCT008 OVC014 M01/M03 A3001 RMK AO2
                 P0000 T10061033 =
2019-01-18 13:24 METAR KFZY 181824Z AUTO 29009KT 2 1/2SM -SN SCT008 OVC016 M01/M03 A3000 RMK AO2
                 P0000 T10061033 =
2019-01-18 13:17 METAR KFZY 181817Z AUTO 28007KT 1 1/2SM -SN BKN008 OVC016 M01/M03 A2999 RMK AO2
                 CIG 005V011 P0000 T10061033 =
2019-01-18 12:54 METAR KFZY 181754Z AUTO 29007KT 1SM -SN OVC008 00/M03 A2998 RMK AO2
                 UPB10E24SNB1659E10B24 CIG 006V012 SLP159 P0000 60000 T00001028 10000 21039 56005
                 =
2019-01-18 12:43 METAR KFZY 181743Z AUTO 27008KT 1 1/2SM -SN OVC009 00/M03 A2998 RMK AO2
                 UPB10E24SNB1659E10B24 CIG 007V012 P0000 T00001033 =
2019-01-18 12:34 METAR KFZY 181734Z AUTO 27009KT 2SM -SN OVC010 00/M03 A2998 RMK AO2
                 UPB10E24SNB1659E10B24 P0000 T00001033 =
2019-01-18 11:54 METAR KFZY 181654Z AUTO 21006KT 4SM HZ OVC011 M01/M04 A2999 RMK AO2 SLP160
                 T10061039 =
2019-01-18 10:54 METAR KFZY 181554Z AUTO 17004KT 5SM HZ OVC013 M02/M05 A3000 RMK AO2 SNE28 SLP166
                 P0000 T10221050 =
2019-01-18 10:26 METAR KFZY 181526Z AUTO 15003KT 3SM -SN OVC014 M02/M05 A2999 RMK AO2 P0000
                 T10221050 =
2019-01-18 10:11 METAR KFZY 181511Z AUTO 00000KT 3SM -SN OVC015 M02/M05 A2999 RMK AO2 P0000
                 T10221050 =
2019-01-18 10:04 METAR KFZY 181504Z AUTO VRB03KT 2 1/2SM -SN BR OVC015 M03/M05 A2999 RMK AO2
                 P0000 T10281050 =
2019-01-18 09:54 METAR KFZY 181454Z AUTO 14003KT 1 3/4SM -SN OVC016 M03/M06 A2999 RMK AO2 SLP162
                 P0000 60000 T10281056 52004 =
2019-01-18 09:18 METAR KFZY 181418Z AUTO VRB03KT 1 3/4SM -SN OVC018 M03/M06 A2999 RMK AO2 P0000
                 T10331061 =
2019-01-18 09:10 METAR KFZY 181410Z AUTO 14003KT 2SM -SN FEW012 OVC017 M03/M06 A2999 RMK AO2
                 P0000 T10331061 =
2019-01-18 09:03 METAR KFZY 181403Z AUTO 13003KT 1 3/4SM -SN SCT012 OVC017 M03/M06 A2999 RMK AO2
                 P0000 T10331061 =
2019-01-18 08:54 METAR KFZY 181354Z AUTO 14004KT 1SM -SN FEW012 OVC018 M03/M06 A2998 RMK AO2
                 SLP161 P0000 T10331061 =
2019-01-18 08:48 METAR KFZY 181348Z AUTO VRB04KT 1 3/4SM -SN BKN015 OVC021 M03/M06 A2998 RMK AO2
                 P0000 =
2019-01-18 08:35 METAR KFZY 181335Z AUTO 12003KT 3SM -SN FEW011 OVC017 M03/M06 A2999 RMK AO2
                 P0000 T10331061 =
2019-01-18 08:25 METAR KFZY 181325Z AUTO VRB03KT 1 1/4SM -SN FEW011 OVC019 M03/M06 A2998 RMK AO2
                 P0000 T10331061 =
2019-01-18 07:54 METAR KFZY 181254Z AUTO VRB04KT 3/4SM -SN BR FEW014 OVC021 M04/M06 A2998 RMK AO2
                 SLP159 P0000 T10391061 =
2019-01-18 07:51 METAR KFZY 181251Z AUTO VRB04KT 1SM -SN BR FEW014 OVC021 M04/M06 A2998 RMK AO2
                 P0000 =
2019-01-18 07:20 METAR KFZY 181220Z AUTO 13004KT 2 1/2SM -SN OVC025 M04/M07 A2998 RMK AO2 P0000
                 T10391067 =
2019-01-18 07:08 METAR KFZY 181208Z AUTO VRB04KT 1 3/4SM -SN OVC027 M04/M07 A2998 RMK AO2 P0000
                 T10391067 =
2019-01-18 06:54 METAR KFZY 181154Z AUTO VRB04KT 2SM -SN OVC028 M04/M07 A2998 RMK AO2 SLP158
                 P0000 60000 T10391067 11033 21050 55007 =
2019-01-18 06:47 METAR KFZY 181147Z AUTO VRB04KT 2SM -SN OVC028 M04/M07 A2997 RMK AO2 P0000
                 T10391067 =
2019-01-18 06:09 METAR KFZY 181109Z AUTO VRB04KT 3SM -SN OVC026 M03/M07 A2997 RMK AO2 P0000
                 T10331067 =
2019-01-18 05:54 METAR KFZY 181054Z AUTO 12004KT 2 1/2SM -SN OVC026 M03/M07 A2997 RMK AO2 SLP155
                 P0000 T10331067 =
2019-01-18 05:33 METAR KFZY 181033Z AUTO 13005KT 2 1/2SM -SN OVC026 M03/M07 A2997 RMK AO2 P0000
                 T10331067 =
2019-01-18 04:54 METAR KFZY 180954Z AUTO 13006KT 4SM -SN OVC026 M03/M07 A2998 RMK AO2 SLP159
                 P0000 T10331067 =
2019-01-18 04:05 METAR KFZY 180905Z AUTO 12005KT 5SM -SN OVC026 M04/M07 A3000 RMK AO2 P0000
                 T10391072 =
2019-01-18 03:54 METAR KFZY 180854Z AUTO 13004KT 2 1/2SM -SN OVC028 M04/M08 A3000 RMK AO2 SNB02
                 SLP165 P0000 60000 T10391078 58016 =
2019-01-18 03:29 METAR KFZY 180829Z AUTO VRB03KT 2 1/2SM -SN BKN030 OVC038 M04/M08 A3001 RMK AO2
                 SNB02 P0000 T10391083 =
2019-01-18 03:25 METAR KFZY 180825Z AUTO 14003KT 3SM -SN BKN028 BKN038 OVC047 M04/M08 A3001 RMK
                 AO2 SNB02 P0000 T10391083 =
2019-01-18 02:54 METAR KFZY 180754Z AUTO 13004KT 6SM HZ BKN049 OVC080 M04/M09 A3002 RMK AO2
                 SNB30E54 SLP173 P0000 T10441094 =
2019-01-18 01:54 METAR KFZY 180654Z AUTO 13004KT 10SM SCT039 OVC048 M04/M11 A3003 RMK AO2 SLP177
                 T10441111 =
2019-01-18 00:54 METAR KFZY 180554Z AUTO 13004KT 10SM OVC044 M05/M12 A3004 RMK AO2 SLP182
                 T10501117 11050 21072 58018 =
2019-01-17 23:54 METAR KFZY 180454Z AUTO 13005KT 10SM OVC046 M05/M13 A3007 RMK AO2 SLP189
                 T10501128 410501178 =

Support USWX by starting your Amazon purchase here.